createdAt,value
2022-07-27T00:00:59.598Z,16.40
2022-07-27T00:03:26.759Z,16.36
2022-07-27T00:05:53.868Z,16.33
2022-07-27T00:08:22.312Z,16.29
2022-07-27T00:10:50.440Z,16.31
2022-07-27T00:13:17.568Z,16.30
2022-07-27T00:15:44.703Z,16.28
2022-07-27T00:18:11.965Z,16.26
2022-07-27T00:20:39.968Z,16.25
2022-07-27T00:23:07.296Z,16.18
2022-07-27T00:25:35.183Z,16.17
2022-07-27T00:28:03.627Z,16.16
2022-07-27T00:30:30.739Z,16.13
2022-07-27T00:32:57.975Z,16.14
2022-07-27T00:35:25.412Z,16.08
2022-07-27T00:37:52.882Z,16.05
2022-07-27T00:40:20.006Z,15.99
2022-07-27T00:42:47.090Z,15.97
2022-07-27T00:45:14.273Z,15.90
2022-07-27T00:47:41.510Z,15.81
2022-07-27T00:50:09.255Z,15.76
2022-07-27T00:52:38.190Z,15.69
2022-07-27T00:55:06.163Z,15.60
2022-07-27T00:57:33.337Z,15.53
2022-07-27T01:00:21.328Z,15.47
2022-07-27T01:06:57.497Z,15.29
2022-07-27T01:09:43.533Z,15.25
2022-07-27T01:12:14.957Z,15.22
2022-07-27T01:14:42.088Z,15.19
2022-07-27T01:17:09.324Z,15.17
2022-07-27T01:19:36.621Z,15.13
2022-07-27T01:22:04.977Z,15.09
2022-07-27T01:24:32.349Z,15.00
2022-07-27T01:27:01.676Z,14.95
2022-07-27T01:29:29.353Z,14.93
2022-07-27T01:31:56.839Z,14.89
2022-07-27T01:34:24.209Z,14.82
2022-07-27T01:36:51.296Z,14.78
2022-07-27T01:39:19.360Z,14.78
2022-07-27T01:41:46.601Z,14.74
2022-07-27T01:44:14.162Z,14.68
2022-07-27T01:46:41.318Z,14.63
2022-07-27T01:49:08.945Z,14.59
2022-07-27T01:51:36.503Z,14.55
2022-07-27T01:54:03.749Z,14.51
2022-07-27T01:56:30.836Z,14.45
2022-07-27T01:58:58.950Z,14.40
2022-07-27T02:01:26.211Z,14.37
2022-07-27T02:03:53.403Z,14.35
2022-07-27T02:06:20.463Z,14.28
2022-07-27T02:08:47.561Z,14.23
2022-07-27T02:11:32.964Z,14.19
2022-07-27T02:14:00.095Z,14.17
2022-07-27T02:16:27.207Z,14.13
2022-07-27T02:18:55.630Z,14.08
2022-07-27T02:21:22.714Z,14.05
2022-07-27T02:23:49.809Z,14.01
2022-07-27T02:26:16.883Z,13.94
2022-07-27T02:28:44.055Z,13.94
2022-07-27T02:31:11.173Z,13.90
2022-07-27T02:33:38.278Z,13.86
2022-07-27T02:36:05.598Z,13.85
2022-07-27T02:38:32.739Z,13.82
2022-07-27T02:40:59.838Z,13.80
2022-07-27T02:43:26.942Z,13.77
2022-07-27T02:45:54.083Z,13.72
2022-07-27T02:48:21.607Z,13.70
2022-07-27T02:50:48.756Z,13.65
2022-07-27T02:53:15.849Z,13.62
2022-07-27T02:55:42.962Z,13.58
2022-07-27T02:58:10.087Z,13.56
2022-07-27T03:00:37.168Z,13.55
2022-07-27T03:03:04.271Z,13.53
2022-07-27T03:05:31.479Z,13.50
2022-07-27T03:07:58.576Z,13.49
2022-07-27T03:10:25.643Z,13.50
2022-07-27T03:12:52.744Z,13.48
2022-07-27T03:15:19.835Z,13.46
2022-07-27T03:17:47.378Z,13.43
2022-07-27T03:20:14.632Z,13.42
2022-07-27T03:22:41.945Z,13.39
2022-07-27T03:25:09.531Z,13.38
2022-07-27T03:27:36.818Z,13.38
2022-07-27T03:30:05.346Z,13.39
2022-07-27T03:32:32.578Z,13.39
2022-07-27T03:34:59.674Z,13.34
2022-07-27T03:37:26.818Z,13.33
2022-07-27T03:39:53.928Z,13.29
2022-07-27T03:42:21.065Z,13.29
2022-07-27T03:44:48.151Z,13.34
2022-07-27T03:47:15.230Z,13.27
2022-07-27T03:49:42.309Z,13.29
2022-07-27T03:52:11.996Z,13.31
2022-07-27T03:54:42.869Z,13.31
2022-07-27T03:57:09.943Z,13.31
2022-07-27T03:59:37.046Z,13.30
2022-07-27T04:02:04.901Z,13.32
2022-07-27T04:04:32.051Z,13.33
2022-07-27T04:06:59.891Z,13.33
2022-07-27T04:09:27.080Z,13.29
2022-07-27T04:11:56.010Z,13.30
2022-07-27T04:14:23.087Z,13.35
2022-07-27T04:16:50.467Z,13.34
2022-07-27T04:19:17.634Z,13.31
2022-07-27T04:21:44.765Z,13.31
2022-07-27T04:24:12.214Z,13.30
2022-07-27T04:26:39.539Z,13.32
2022-07-27T04:29:06.741Z,13.29
2022-07-27T04:31:33.899Z,13.29
2022-07-27T04:34:01.002Z,13.29
2022-07-27T04:36:28.142Z,13.31
2022-07-27T04:38:55.235Z,13.33
2022-07-27T04:41:22.339Z,13.36
2022-07-27T04:43:58.570Z,13.41
2022-07-27T04:46:27.137Z,13.45
2022-07-27T04:48:54.325Z,13.51
2022-07-27T04:51:21.741Z,13.59
2022-07-27T04:53:58.111Z,13.60
2022-07-27T04:56:26.723Z,13.71
2022-07-27T04:58:54.861Z,13.82
2022-07-27T05:01:23.313Z,13.91
2022-07-27T05:03:50.669Z,13.94
2022-07-27T05:06:18.042Z,14.01
2022-07-27T05:08:45.154Z,14.04
2022-07-27T05:11:12.519Z,14.09
2022-07-27T05:13:40.572Z,14.13
2022-07-27T05:16:11.312Z,14.19
2022-07-27T05:18:38.969Z,14.25
2022-07-27T05:21:06.801Z,14.30
2022-07-27T05:23:34.261Z,14.27
2022-07-27T05:26:01.445Z,14.33
2022-07-27T05:28:29.344Z,14.28
2022-07-27T05:30:56.720Z,14.30
2022-07-27T05:33:23.846Z,14.35
2022-07-27T05:35:51.000Z,14.35
2022-07-27T05:38:18.092Z,14.35
2022-07-27T05:40:46.115Z,14.25
2022-07-27T05:43:13.492Z,14.26
2022-07-27T05:45:40.631Z,14.32
2022-07-27T05:48:08.750Z,14.36
2022-07-27T05:50:35.914Z,14.53
2022-07-27T05:53:03.665Z,14.62
2022-07-27T05:55:30.798Z,14.61
2022-07-27T05:57:57.976Z,14.61
2022-07-27T06:00:25.080Z,14.75
2022-07-27T06:02:52.197Z,14.63
2022-07-27T06:05:19.336Z,14.62
2022-07-27T06:08:08.716Z,14.61
2022-07-27T06:10:37.572Z,14.80
2022-07-27T06:13:06.155Z,14.91
2022-07-27T06:15:33.561Z,15.04
2022-07-27T06:18:00.851Z,15.13
2022-07-27T06:20:28.191Z,15.29
2022-07-27T06:22:57.740Z,15.26
2022-07-27T06:25:34.573Z,15.37
2022-07-27T06:28:06.546Z,15.14
2022-07-27T06:30:33.863Z,15.16
2022-07-27T06:33:05.019Z,15.29
2022-07-27T06:35:34.023Z,15.45
2022-07-27T06:38:01.412Z,15.52
2022-07-27T06:40:29.918Z,15.33
2022-07-27T06:42:58.339Z,15.42
2022-07-27T06:45:27.022Z,15.47
2022-07-27T06:47:54.184Z,15.59
2022-07-27T06:50:21.590Z,15.61
2022-07-27T06:52:49.477Z,15.75
2022-07-27T06:55:16.767Z,15.90
2022-07-27T06:57:43.850Z,16.08
2022-07-27T07:00:11.946Z,15.99
2022-07-27T07:02:40.183Z,16.26
2022-07-27T07:05:07.378Z,16.02
2022-07-27T07:07:34.482Z,16.16
2022-07-27T07:10:01.963Z,16.36
2022-07-27T07:12:29.021Z,16.54
2022-07-27T07:14:56.083Z,16.64
2022-07-27T07:17:23.163Z,16.78
2022-07-27T07:19:50.404Z,16.62
2022-07-27T07:22:17.577Z,16.90
2022-07-27T07:24:44.664Z,16.72
2022-07-27T07:27:11.854Z,16.91
2022-07-27T07:29:38.997Z,16.99
2022-07-27T07:32:06.398Z,17.09
2022-07-27T07:34:33.546Z,16.92
2022-07-27T07:37:00.671Z,16.83
2022-07-27T07:39:31.413Z,17.00
2022-07-27T07:41:58.784Z,17.16
2022-07-27T07:44:26.317Z,17.28
2022-07-27T07:46:53.527Z,17.37
2022-07-27T07:49:39.869Z,17.77
2022-07-27T07:52:07.914Z,18.01
2022-07-27T07:54:35.030Z,18.03
2022-07-27T07:57:02.142Z,17.90
2022-07-27T07:59:29.262Z,17.84
2022-07-27T08:01:56.609Z,17.55
2022-07-27T08:04:24.010Z,17.59
2022-07-27T08:06:51.128Z,17.47
2022-07-27T08:09:18.196Z,17.48
2022-07-27T08:11:45.368Z,17.71
2022-07-27T08:14:12.505Z,17.79
2022-07-27T08:16:40.031Z,17.62
2022-07-27T08:19:09.520Z,17.44
2022-07-27T08:21:36.828Z,17.33
2022-07-27T08:24:03.937Z,17.13
2022-07-27T08:26:31.050Z,17.22
2022-07-27T08:28:59.454Z,17.19
2022-07-27T08:31:52.450Z,17.14
2022-07-27T08:34:20.526Z,17.21
2022-07-27T08:36:47.587Z,17.61
2022-07-27T08:39:41.378Z,17.70
2022-07-27T08:42:06.146Z,17.74
2022-07-27T08:44:33.623Z,18.03
2022-07-27T08:47:03.638Z,18.19
2022-07-27T08:49:42.397Z,18.13
2022-07-27T08:52:11.551Z,18.07
2022-07-27T08:54:40.381Z,17.91
2022-07-27T08:57:10.880Z,17.81
2022-07-27T08:59:38.045Z,17.75
2022-07-27T09:02:10.515Z,17.83
2022-07-27T09:04:40.164Z,17.80
2022-07-27T09:07:07.242Z,17.48
2022-07-27T09:09:55.041Z,17.45
2022-07-27T09:12:27.455Z,17.61
2022-07-27T09:15:14.537Z,18.04
2022-07-27T09:17:48.662Z,18.30
2022-07-27T09:20:19.314Z,18.72
2022-07-27T09:22:51.019Z,19.06
2022-07-27T09:25:44.787Z,18.78
2022-07-27T09:28:10.707Z,18.35
2022-07-27T09:30:43.152Z,18.18
2022-07-27T09:33:10.547Z,18.35
2022-07-27T09:35:37.935Z,18.33
2022-07-27T09:38:21.688Z,18.25
2022-07-27T09:41:08.919Z,18.41
2022-07-27T09:46:37.914Z,18.27
2022-07-27T09:49:05.901Z,18.22
2022-07-27T09:51:58.996Z,18.30
2022-07-27T09:54:21.212Z,18.67
2022-07-27T09:57:00.134Z,18.81
2022-07-27T09:59:28.204Z,19.06
2022-07-27T10:01:56.300Z,19.15
2022-07-27T10:04:23.725Z,19.02
2022-07-27T10:07:02.646Z,18.98
2022-07-27T10:09:31.808Z,18.93
2022-07-27T10:11:58.948Z,19.25
2022-07-27T10:14:26.093Z,19.25
2022-07-27T10:16:53.815Z,19.64
2022-07-27T10:19:38.943Z,20.03
2022-07-27T10:22:06.036Z,20.06
2022-07-27T10:24:36.184Z,20.02
2022-07-27T10:27:41.502Z,19.50
2022-07-27T10:30:09.253Z,19.75
2022-07-27T10:32:37.124Z,19.99
2022-07-27T10:35:04.524Z,20.08
2022-07-27T10:37:33.857Z,20.13
2022-07-27T10:40:25.893Z,19.91
2022-07-27T10:43:07.752Z,20.19
2022-07-27T10:46:00.175Z,20.20
2022-07-27T10:48:44.203Z,20.15
2022-07-27T10:51:16.276Z,19.99
2022-07-27T10:54:10.867Z,19.94
2022-07-27T10:56:45.678Z,19.76
2022-07-27T10:59:12.938Z,20.22
2022-07-27T11:01:59.090Z,20.53
2022-07-27T11:04:26.338Z,20.35
2022-07-27T11:07:24.063Z,20.37
2022-07-27T11:12:34.004Z,19.76
2022-07-27T11:15:01.071Z,20.15
2022-07-27T11:17:54.216Z,20.56
2022-07-27T11:20:22.493Z,20.68
2022-07-27T11:25:36.654Z,20.52
2022-07-27T11:28:07.474Z,20.84
2022-07-27T11:30:34.694Z,21.08
2022-07-27T11:33:03.934Z,21.29
2022-07-27T11:35:31.174Z,21.10
2022-07-27T11:38:02.835Z,21.08
2022-07-27T11:41:12.637Z,21.16
2022-07-27T11:43:43.316Z,21.10
2022-07-27T11:46:15.489Z,20.82
2022-07-27T11:49:06.672Z,20.26
2022-07-27T11:51:41.908Z,20.07
2022-07-27T11:54:19.799Z,20.08
2022-07-27T11:56:48.971Z,20.30
2022-07-27T11:59:24.361Z,20.27
2022-07-27T12:01:56.500Z,20.22
2022-07-27T12:04:27.481Z,20.31
2022-07-27T12:06:59.373Z,20.18
2022-07-27T12:09:27.065Z,20.48
2022-07-27T12:12:01.279Z,20.67
2022-07-27T12:14:37.131Z,20.71
2022-07-27T12:17:15.439Z,20.77
2022-07-27T12:19:43.360Z,20.88
2022-07-27T12:22:10.690Z,21.35
2022-07-27T12:24:40.455Z,21.19
2022-07-27T12:27:14.827Z,21.29
2022-07-27T12:30:01.951Z,21.89
2022-07-27T12:32:31.269Z,21.49
2022-07-27T12:34:58.856Z,21.28
2022-07-27T12:37:30.450Z,21.14
2022-07-27T12:39:57.902Z,21.14
2022-07-27T12:42:35.939Z,21.34
2022-07-27T12:45:17.527Z,21.29
2022-07-27T12:47:44.777Z,21.00
2022-07-27T12:50:26.309Z,21.35
2022-07-27T12:52:53.474Z,21.54
2022-07-27T12:55:21.922Z,21.78
2022-07-27T12:57:57.524Z,22.15
2022-07-27T13:00:32.748Z,22.34
2022-07-27T13:03:01.409Z,22.19
2022-07-27T13:05:28.880Z,21.90
2022-07-27T13:07:56.192Z,21.26
2022-07-27T13:10:23.305Z,21.36
2022-07-27T13:12:51.017Z,21.31
2022-07-27T13:15:18.738Z,21.04
2022-07-27T13:17:47.365Z,21.43
2022-07-27T13:20:15.862Z,21.59
2022-07-27T13:22:44.104Z,21.66
2022-07-27T13:25:16.388Z,21.94
2022-07-27T13:27:48.516Z,22.21
2022-07-27T13:30:17.515Z,22.36
2022-07-27T13:32:46.542Z,22.99
2022-07-27T13:35:14.668Z,23.16
2022-07-27T13:37:41.909Z,23.61
2022-07-27T13:40:09.965Z,23.86
2022-07-27T13:42:37.552Z,24.24
2022-07-27T13:45:10.478Z,24.80
2022-07-27T13:47:39.354Z,24.25
2022-07-27T13:50:15.141Z,24.43
2022-07-27T13:52:46.172Z,23.61
2022-07-27T13:55:15.241Z,24.15
2022-07-27T13:57:42.388Z,24.52
2022-07-27T14:00:10.245Z,23.91
2022-07-27T14:02:37.498Z,24.05
2022-07-27T14:05:05.939Z,23.96
2022-07-27T14:07:33.386Z,23.27
2022-07-27T14:10:19.182Z,22.64
2022-07-27T14:12:46.348Z,22.16
2022-07-27T14:15:13.435Z,22.12
2022-07-27T14:17:40.603Z,22.32
2022-07-27T14:20:08.740Z,22.35
2022-07-27T14:22:35.838Z,22.59
2022-07-27T14:25:03.084Z,22.50
2022-07-27T14:27:33.745Z,22.55
2022-07-27T14:30:06.951Z,22.20
2022-07-27T14:32:35.112Z,21.43
2022-07-27T14:35:02.673Z,21.50
2022-07-27T14:37:29.782Z,21.66
2022-07-27T14:39:56.931Z,21.66
2022-07-27T14:42:25.099Z,24.04
2022-07-27T14:44:52.838Z,26.02
2022-07-27T14:47:20.044Z,25.83
2022-07-27T14:49:47.227Z,24.75
2022-07-27T14:52:14.539Z,23.39
2022-07-27T14:54:42.383Z,22.68
2022-07-27T14:57:09.897Z,22.51
2022-07-27T14:59:37.080Z,22.69
2022-07-27T15:02:04.863Z,23.62
2022-07-27T15:04:32.009Z,23.67
2022-07-27T15:06:59.950Z,23.33
2022-07-27T15:09:30.073Z,22.97
2022-07-27T15:12:00.866Z,22.75
2022-07-27T15:14:27.963Z,24.25
2022-07-27T15:16:55.441Z,26.30
2022-07-27T15:19:22.852Z,26.12
2022-07-27T15:21:50.129Z,24.90
2022-07-27T15:24:17.219Z,24.14
2022-07-27T15:26:44.377Z,23.93
2022-07-27T15:29:15.037Z,23.61
2022-07-27T15:31:43.223Z,24.36
2022-07-27T15:34:10.525Z,26.17
2022-07-27T15:36:44.769Z,26.14
2022-07-27T15:39:14.790Z,28.16
2022-07-27T15:41:42.228Z,27.51
2022-07-27T15:44:09.345Z,26.94
2022-07-27T15:46:36.457Z,26.08
2022-07-27T15:49:03.712Z,26.38
2022-07-27T15:51:31.094Z,27.22
2022-07-27T15:53:58.220Z,26.38
2022-07-27T15:56:25.403Z,25.55
2022-07-27T15:58:52.571Z,24.83
2022-07-27T16:01:20.913Z,24.41
2022-07-27T16:03:49.581Z,23.77
2022-07-27T16:06:19.394Z,24.01
2022-07-27T16:08:47.535Z,24.90
2022-07-27T16:11:14.661Z,24.78
2022-07-27T16:13:42.061Z,27.93
2022-07-27T16:16:27.846Z,30.17
2022-07-27T16:18:55.290Z,31.23
2022-07-27T16:21:23.163Z,34.39
2022-07-27T16:23:51.319Z,36.98
2022-07-27T16:26:18.397Z,37.98
2022-07-27T16:28:47.168Z,36.96
2022-07-27T16:31:15.926Z,34.71
2022-07-27T16:33:44.404Z,32.41
2022-07-27T16:36:12.386Z,30.11
2022-07-27T16:38:49.423Z,28.44
2022-07-27T16:41:21.822Z,27.41
2022-07-27T16:43:49.665Z,26.31
2022-07-27T16:46:17.010Z,25.52
2022-07-27T16:48:44.221Z,25.13
2022-07-27T16:51:13.417Z,24.86
2022-07-27T16:53:45.636Z,24.81
2022-07-27T16:56:12.912Z,24.52
2022-07-27T16:58:40.596Z,23.98
2022-07-27T17:01:08.273Z,23.97
2022-07-27T17:03:35.753Z,23.24
2022-07-27T17:06:06.328Z,22.99
2022-07-27T17:08:36.220Z,22.48
2022-07-27T17:11:06.090Z,22.52
2022-07-27T17:13:34.582Z,22.39
2022-07-27T17:16:06.627Z,22.45
2022-07-27T17:18:39.902Z,22.34
2022-07-27T17:21:12.213Z,22.05
2022-07-27T17:23:40.654Z,22.12
2022-07-27T17:26:09.062Z,22.19
2022-07-27T17:28:38.880Z,21.95
2022-07-27T17:31:07.990Z,21.72
2022-07-27T17:33:35.400Z,21.58
2022-07-27T17:36:02.837Z,21.52
2022-07-27T17:38:29.929Z,21.60
2022-07-27T17:40:57.053Z,21.59
2022-07-27T17:43:24.121Z,21.55
2022-07-27T17:45:51.212Z,21.48
2022-07-27T17:48:18.624Z,20.74
2022-07-27T17:50:45.723Z,20.79
2022-07-27T17:53:12.798Z,20.47
2022-07-27T17:55:39.912Z,20.56
2022-07-27T17:58:07.130Z,20.60
2022-07-27T18:00:34.281Z,20.48
2022-07-27T18:03:01.702Z,20.38
2022-07-27T18:05:28.820Z,20.26
2022-07-27T18:07:55.926Z,20.23
2022-07-27T18:10:23.484Z,20.15
2022-07-27T18:12:50.567Z,20.14
2022-07-27T18:15:36.438Z,20.07
2022-07-27T18:18:04.369Z,19.93
2022-07-27T18:20:31.704Z,19.81
2022-07-27T18:22:58.997Z,19.73
2022-07-27T18:25:27.011Z,19.71
2022-07-27T18:27:54.241Z,19.66
2022-07-27T18:30:21.296Z,19.57
2022-07-27T18:32:48.552Z,19.51
2022-07-27T18:35:15.948Z,19.44
2022-07-27T18:37:44.254Z,19.39
2022-07-27T18:40:11.643Z,19.29
2022-07-27T18:42:39.390Z,19.25
2022-07-27T18:45:07.363Z,19.16
2022-07-27T18:47:34.543Z,19.11
2022-07-27T18:50:01.910Z,19.05
2022-07-27T18:52:28.979Z,19.00
2022-07-27T18:54:56.061Z,18.95
2022-07-27T18:57:23.185Z,18.91
2022-07-27T18:59:50.691Z,18.82
2022-07-27T19:02:17.930Z,18.75
2022-07-27T19:04:45.013Z,18.69
2022-07-27T19:07:14.371Z,18.64
2022-07-27T19:09:42.984Z,18.59
2022-07-27T19:12:10.285Z,18.55
2022-07-27T19:14:37.532Z,18.51
2022-07-27T19:17:05.298Z,18.47
2022-07-27T19:19:32.583Z,18.42
2022-07-27T19:22:00.147Z,18.39
2022-07-27T19:24:27.236Z,18.35
2022-07-27T19:26:54.320Z,18.30
2022-07-27T19:29:22.713Z,18.26
2022-07-27T19:31:50.265Z,18.23
2022-07-27T19:34:17.526Z,18.16
2022-07-27T19:36:45.070Z,18.11
2022-07-27T19:39:12.641Z,18.07
2022-07-27T19:41:40.327Z,18.02
2022-07-27T19:44:08.064Z,17.98
2022-07-27T19:46:35.444Z,17.92
2022-07-27T19:49:02.646Z,17.87
2022-07-27T19:51:29.856Z,17.81
2022-07-27T19:53:57.067Z,17.75
2022-07-27T19:56:24.224Z,17.67
2022-07-27T19:58:51.345Z,17.62
2022-07-27T20:01:18.568Z,17.55
2022-07-27T20:03:52.162Z,17.49
2022-07-27T20:06:25.312Z,17.44
2022-07-27T20:08:59.362Z,17.40
2022-07-27T20:11:29.835Z,17.35
2022-07-27T20:13:59.100Z,17.33
2022-07-27T20:16:30.282Z,17.29
2022-07-27T20:18:58.236Z,17.26
2022-07-27T20:21:25.327Z,17.24
2022-07-27T20:23:52.817Z,17.20
2022-07-27T20:26:20.447Z,17.18
2022-07-27T20:28:49.673Z,17.15
2022-07-27T20:31:17.139Z,17.12
2022-07-27T20:33:44.311Z,17.11
2022-07-27T20:36:11.451Z,17.09
2022-07-27T20:38:38.641Z,17.05
2022-07-27T20:41:05.731Z,17.03
2022-07-27T20:43:32.904Z,16.99
2022-07-27T20:46:00.044Z,16.92
2022-07-27T20:48:27.202Z,16.89
2022-07-27T20:50:54.333Z,16.86
2022-07-27T20:53:21.435Z,16.82
2022-07-27T20:55:48.569Z,16.79
2022-07-27T20:58:15.669Z,16.76
2022-07-27T21:00:42.928Z,16.72
2022-07-27T21:03:10.159Z,16.68
2022-07-27T21:05:37.261Z,16.64
2022-07-27T21:08:04.527Z,16.59
2022-07-27T21:10:31.626Z,16.54
2022-07-27T21:12:58.687Z,16.48
2022-07-27T21:15:33.995Z,16.44
2022-07-27T21:18:02.216Z,16.41
2022-07-27T21:20:29.402Z,16.37
2022-07-27T21:23:15.105Z,16.31
2022-07-27T21:25:43.867Z,16.30
2022-07-27T21:28:13.248Z,16.26
2022-07-27T21:30:44.392Z,16.21
2022-07-27T21:33:11.562Z,16.18
2022-07-27T21:35:38.739Z,16.13
2022-07-27T21:38:06.077Z,16.08
2022-07-27T21:40:33.260Z,16.04
2022-07-27T21:43:01.188Z,15.99
2022-07-27T21:45:28.419Z,15.95
2022-07-27T21:47:55.623Z,15.92
2022-07-27T21:50:22.730Z,15.88
2022-07-27T21:52:51.195Z,15.83
2022-07-27T21:55:22.890Z,15.80
2022-07-27T21:57:50.978Z,15.76
2022-07-27T22:00:25.394Z,15.72
2022-07-27T22:02:52.532Z,15.66
2022-07-27T22:05:21.657Z,15.61
2022-07-27T22:07:52.002Z,15.58
2022-07-27T22:10:19.260Z,15.55
2022-07-27T22:12:46.488Z,15.50
2022-07-27T22:15:13.582Z,15.47
2022-07-27T22:17:50.142Z,15.44
2022-07-27T22:20:19.025Z,15.41
2022-07-27T22:22:46.292Z,15.36
2022-07-27T22:25:13.407Z,15.32
2022-07-27T22:27:40.687Z,15.28
2022-07-27T22:30:08.128Z,15.26
2022-07-27T22:32:35.444Z,15.21
2022-07-27T22:35:02.786Z,15.17
2022-07-27T22:37:30.157Z,15.14
2022-07-27T22:39:57.264Z,15.09
2022-07-27T22:42:24.349Z,15.04
2022-07-27T22:44:51.444Z,15.02
2022-07-27T22:47:18.554Z,14.99
2022-07-27T22:49:45.757Z,14.95
2022-07-27T22:52:12.891Z,14.91
2022-07-27T22:54:40.130Z,14.87
2022-07-27T22:57:08.103Z,14.84
2022-07-27T22:59:35.391Z,14.80
2022-07-27T23:02:02.598Z,14.78
2022-07-27T23:04:29.981Z,14.75
2022-07-27T23:06:57.769Z,14.71
2022-07-27T23:09:25.270Z,14.67
2022-07-27T23:11:52.732Z,14.64
2022-07-27T23:14:19.818Z,14.61
2022-07-27T23:16:46.903Z,14.58
2022-07-27T23:19:14.044Z,14.56
2022-07-27T23:21:42.338Z,14.53
2022-07-27T23:24:11.114Z,14.51
2022-07-27T23:26:38.922Z,14.49
2022-07-27T23:29:06.089Z,14.46
2022-07-27T23:31:33.546Z,14.44
2022-07-27T23:34:00.688Z,14.39
2022-07-27T23:36:27.772Z,14.36
2022-07-27T23:38:54.868Z,14.35
2022-07-27T23:41:21.992Z,14.32
2022-07-27T23:43:49.115Z,14.31
2022-07-27T23:46:16.256Z,14.28
2022-07-27T23:48:43.805Z,14.25
2022-07-27T23:51:16.769Z,14.22
2022-07-27T23:53:43.900Z,14.19
2022-07-27T23:56:10.984Z,14.17
2022-07-27T23:58:41.008Z,14.15
